Time;durP1;ratioP1;P1;durP2;ratioP2;P2;SDS_P1;SDS_P2;PMS_P1;PMS_P2;Temp;Humidity;BMP_temperature;BMP_pressure;BME280_temperature;BME280_humidity;BME280_pressure;Samples;Min_cycle;Max_cycle;Signal;HPM_P1;HPM_P2
2023/04/25 00:02:03;;;;;;;1.90;1.17;;;;;;;;;;4998643;28;20291;-79
2023/04/25 00:04:29;;;;;;;1.30;1.20;;;;;;;;;;4998896;28;20215;-80
2023/04/25 00:06:56;;;;;;;1.30;0.97;;;;;;;;;;4998422;28;20231;-79
2023/04/25 00:09:22;;;;;;;2.80;1.20;;;;;;;;;;4998227;28;20211;-80
2023/04/25 00:11:49;;;;;;;1.07;0.97;;;;;;;;;;4998447;28;20210;-80
2023/04/25 00:14:16;;;;;;;0.83;0.83;;;;;;;;;;4998073;28;20211;-80
2023/04/25 00:16:44;;;;;;;2.10;1.03;;;;;;;;;;4998223;28;20250;-80
2023/04/25 00:19:10;;;;;;;1.20;1.07;;;;;;;;;;4998276;28;20219;-80
2023/04/25 00:21:37;;;;;;;1.97;1.00;;;;;;;;;;4998326;28;20580;-80
2023/04/25 00:24:04;;;;;;;1.00;1.00;;;;;;;;;;4998260;28;20265;-80
2023/04/25 00:26:30;;;;;;;0.90;0.90;;;;;;;;;;4998223;28;20736;-80
2023/04/25 00:28:56;;;;;;;1.00;1.00;;;;;;;;;;4998046;28;20291;-80
2023/04/25 00:31:23;;;;;;;1.40;0.90;;;;;;;;;;4998131;28;20211;-80
2023/04/25 00:33:49;;;;;;;0.90;0.90;;;;;;;;;;4997865;28;20670;-80
2023/04/25 00:36:16;;;;;;;1.03;0.90;;;;;;;;;;4998821;28;20588;-80
2023/04/25 00:38:43;;;;;;;1.33;0.87;;;;;;;;;;4997002;28;20318;-80
2023/04/25 00:41:09;;;;;;;0.77;0.77;;;;;;;;;;4998133;28;20214;-80
2023/04/25 00:43:36;;;;;;;1.60;1.00;;;;;;;;;;4999037;28;20262;-80
2023/04/25 00:46:03;;;;;;;1.33;1.10;;;;;;;;;;4997929;28;20234;-80
2023/04/25 00:48:29;;;;;;;2.40;1.33;;;;;;;;;;4997404;28;20667;-79
2023/04/25 00:50:57;;;;;;;1.17;1.10;;;;;;;;;;4997352;28;20242;-80
2023/04/25 00:53:25;;;;;;;1.57;1.20;;;;;;;;;;4997140;28;20211;-80
2023/04/25 00:55:51;;;;;;;1.47;1.00;;;;;;;;;;4997204;28;20228;-80
2023/04/25 00:58:18;;;;;;;1.17;1.10;;;;;;;;;;4997061;28;20227;-80
2023/04/25 01:00:46;;;;;;;1.00;1.00;;;;;;;;;;4997312;28;20204;-80
2023/04/25 01:03:12;;;;;;;2.10;1.27;;;;;;;;;;4996927;28;20211;-80
2023/04/25 01:05:40;;;;;;;1.00;0.90;;;;;;;;;;4996639;28;20729;-80
2023/04/25 01:08:06;;;;;;;2.50;1.20;;;;;;;;;;4996966;28;20222;-80
2023/04/25 01:10:32;;;;;;;1.40;1.30;;;;;;;;;;4997366;28;20214;-80
2023/04/25 01:12:59;;;;;;;1.07;1.03;;;;;;;;;;4996992;28;20210;-80
2023/04/25 01:15:25;;;;;;;1.30;1.20;;;;;;;;;;4996723;28;20238;-80
2023/04/25 01:17:52;;;;;;;4.13;1.30;;;;;;;;;;4996635;28;20593;-80
2023/04/25 01:20:22;;;;;;;1.33;1.00;;;;;;;;;;4996411;28;20213;-80
2023/04/25 01:22:48;;;;;;;2.57;1.30;;;;;;;;;;4996778;28;20215;-80
2023/04/25 01:25:15;;;;;;;1.73;1.40;;;;;;;;;;4997013;28;20309;-80
2023/04/25 01:27:41;;;;;;;2.23;1.50;;;;;;;;;;4996587;28;20207;-80
2023/04/25 01:30:07;;;;;;;2.13;1.10;;;;;;;;;;4997011;28;20211;-80
2023/04/25 01:32:38;;;;;;;2.80;1.50;;;;;;;;;;4996567;28;20203;-79
2023/04/25 01:35:08;;;;;;;2.07;1.40;;;;;;;;;;4997156;28;20227;-80
2023/04/25 01:37:35;;;;;;;1.83;1.20;;;;;;;;;;4996422;28;20192;-80
2023/04/25 01:40:01;;;;;;;1.30;1.20;;;;;;;;;;4996093;28;20580;-80
2023/04/25 01:42:28;;;;;;;2.80;1.30;;;;;;;;;;4996309;28;20278;-80
2023/04/25 01:44:54;;;;;;;1.40;1.23;;;;;;;;;;4995950;28;20650;-80
2023/04/25 01:47:20;;;;;;;1.17;1.10;;;;;;;;;;4995777;28;20207;-80
2023/04/25 01:49:46;;;;;;;1.90;1.43;;;;;;;;;;4995901;28;20213;-80
2023/04/25 01:52:13;;;;;;;2.87;1.50;;;;;;;;;;4996189;28;20218;-80
2023/04/25 01:54:43;;;;;;;1.70;1.50;;;;;;;;;;4996319;28;20219;-80
2023/04/25 01:57:10;;;;;;;1.50;1.30;;;;;;;;;;4996250;28;20206;-80
2023/04/25 01:59:36;;;;;;;1.87;1.57;;;;;;;;;;4996068;28;20258;-80
2023/04/25 02:02:03;;;;;;;1.97;1.23;;;;;;;;;;4995980;28;20219;-80
2023/04/25 02:04:33;;;;;;;2.77;1.60;;;;;;;;;;4996253;28;20207;-80
2023/04/25 02:06:59;;;;;;;1.80;1.33;;;;;;;;;;4996315;28;20713;-80
2023/04/25 02:09:25;;;;;;;1.80;1.57;;;;;;;;;;4996243;28;20215;-80
2023/04/25 02:11:51;;;;;;;2.37;1.50;;;;;;;;;;4995990;28;20214;-80
2023/04/25 02:14:18;;;;;;;1.50;1.40;;;;;;;;;;4995858;28;20214;-79
2023/04/25 02:16:44;;;;;;;4.13;1.53;;;;;;;;;;4995909;28;20223;-80
2023/04/25 02:19:11;;;;;;;2.77;1.43;;;;;;;;;;4996199;28;20231;-80
2023/04/25 02:21:37;;;;;;;1.60;1.50;;;;;;;;;;4996197;28;20217;-80
2023/04/25 02:24:04;;;;;;;2.07;1.40;;;;;;;;;;4995838;28;20203;-80
2023/04/25 02:26:30;;;;;;;1.73;1.40;;;;;;;;;;4995923;28;20224;-80
2023/04/25 02:28:57;;;;;;;2.17;1.37;;;;;;;;;;4996226;28;20211;-80
2023/04/25 02:31:23;;;;;;;3.47;1.67;;;;;;;;;;4995701;28;20203;-80
2023/04/25 02:33:50;;;;;;;1.43;1.30;;;;;;;;;;4996415;28;20214;-80
2023/04/25 02:36:16;;;;;;;1.80;1.50;;;;;;;;;;4996365;28;20230;-80
2023/04/25 02:38:42;;;;;;;2.43;1.50;;;;;;;;;;4996352;28;20238;-80
2023/04/25 02:41:08;;;;;;;1.40;1.30;;;;;;;;;;4995992;28;20214;-80
2023/04/25 02:43:35;;;;;;;2.20;1.70;;;;;;;;;;4996534;28;20291;-80
2023/04/25 02:46:01;;;;;;;3.73;1.53;;;;;;;;;;4995900;28;20227;-80
2023/04/25 02:48:28;;;;;;;1.40;1.30;;;;;;;;;;4996247;28;20218;-80
2023/04/25 02:50:54;;;;;;;1.67;1.50;;;;;;;;;;4996855;28;20211;-80
2023/04/25 02:53:20;;;;;;;1.60;1.50;;;;;;;;;;4996044;28;20575;-80
2023/04/25 02:55:47;;;;;;;2.37;1.43;;;;;;;;;;4996063;28;20243;-80
2023/04/25 02:58:13;;;;;;;2.40;1.43;;;;;;;;;;4995696;28;20254;-80
2023/04/25 03:00:39;;;;;;;2.83;1.47;;;;;;;;;;4995577;28;20211;-80
2023/04/25 03:03:05;;;;;;;2.27;1.60;;;;;;;;;;4996888;28;20218;-80
2023/04/25 03:05:32;;;;;;;2.70;1.63;;;;;;;;;;4999549;28;20227;-80
2023/04/25 03:07:58;;;;;;;2.30;1.37;;;;;;;;;;4997961;28;20211;-80
2023/04/25 03:10:24;;;;;;;2.40;1.70;;;;;;;;;;4997628;28;20191;-80
2023/04/25 03:12:51;;;;;;;1.67;1.57;;;;;;;;;;4997448;28;20208;-80
2023/04/25 03:15:17;;;;;;;1.80;1.33;;;;;;;;;;4997273;28;20242;-80
2023/04/25 03:17:43;;;;;;;1.63;1.37;;;;;;;;;;4997318;28;20281;-80
2023/04/25 03:20:10;;;;;;;3.00;1.67;;;;;;;;;;4997134;28;20347;-80
2023/04/25 03:22:36;;;;;;;2.63;1.40;;;;;;;;;;4997117;28;20659;-80
2023/04/25 03:25:03;;;;;;;2.07;1.77;;;;;;;;;;4997884;28;20688;-80
2023/04/25 03:27:30;;;;;;;1.70;1.40;;;;;;;;;;4998586;28;20662;-80
2023/04/25 03:29:56;;;;;;;2.20;1.60;;;;;;;;;;4998530;28;20685;-80
2023/04/25 03:32:22;;;;;;;1.60;1.50;;;;;;;;;;4998674;28;20216;-80
2023/04/25 03:34:48;;;;;;;1.67;1.33;;;;;;;;;;4998262;28;20211;-80
2023/04/25 03:37:15;;;;;;;3.43;1.60;;;;;;;;;;4998493;28;20218;-80
2023/04/25 03:39:41;;;;;;;1.70;1.60;;;;;;;;;;4998557;28;20223;-80
2023/04/25 03:42:07;;;;;;;1.57;1.47;;;;;;;;;;4999125;28;20229;-80
2023/04/25 03:44:33;;;;;;;2.80;1.70;;;;;;;;;;4998903;28;20211;-80
2023/04/25 03:46:59;;;;;;;3.70;1.70;;;;;;;;;;4998587;28;20253;-80
2023/04/25 03:49:26;;;;;;;2.43;1.47;;;;;;;;;;4998626;28;20208;-80
2023/04/25 03:51:52;;;;;;;2.20;1.60;;;;;;;;;;4998115;28;20218;-80
2023/04/25 03:54:18;;;;;;;2.67;1.50;;;;;;;;;;4997820;28;20214;-80
2023/04/25 03:56:44;;;;;;;2.00;1.77;;;;;;;;;;4998537;28;20231;-80
2023/04/25 03:59:11;;;;;;;2.60;1.40;;;;;;;;;;4998732;28;20223;-80
2023/04/25 04:01:37;;;;;;;3.50;1.77;;;;;;;;;;4999249;28;20223;-80
2023/04/25 04:04:03;;;;;;;2.17;1.70;;;;;;;;;;4998209;28;20203;-80
2023/04/25 04:06:30;;;;;;;3.07;1.80;;;;;;;;;;4998125;28;20228;-80
2023/04/25 04:08:56;;;;;;;1.80;1.50;;;;;;;;;;4997773;28;20226;-80
2023/04/25 04:11:23;;;;;;;3.27;1.67;;;;;;;;;;4997722;28;20230;-80
2023/04/25 04:13:49;;;;;;;2.67;2.00;;;;;;;;;;4998043;28;20211;-80
2023/04/25 04:16:15;;;;;;;4.60;1.53;;;;;;;;;;4997960;28;20227;-80
2023/04/25 04:18:41;;;;;;;2.73;1.70;;;;;;;;;;4997359;28;20238;-80
2023/04/25 04:21:07;;;;;;;2.83;1.60;;;;;;;;;;4998593;28;20219;-80
2023/04/25 04:23:34;;;;;;;2.33;1.53;;;;;;;;;;4997494;28;20204;-80
2023/04/25 04:26:00;;;;;;;4.43;1.70;;;;;;;;;;4997929;28;20227;-80
2023/04/25 04:28:27;;;;;;;1.97;1.50;;;;;;;;;;4997974;28;20203;-80
2023/04/25 04:30:54;;;;;;;2.57;1.87;;;;;;;;;;4997503;28;20745;-80
2023/04/25 04:33:20;;;;;;;1.87;1.63;;;;;;;;;;4997402;28;20682;-80
2023/04/25 04:35:48;;;;;;;2.27;1.50;;;;;;;;;;4997362;28;20227;-80
2023/04/25 04:38:15;;;;;;;2.20;1.60;;;;;;;;;;4997950;28;20235;-80
2023/04/25 04:40:42;;;;;;;1.67;1.57;;;;;;;;;;4997771;28;20207;-80
2023/04/25 04:43:10;;;;;;;3.93;1.80;;;;;;;;;;4998150;28;20756;-81
2023/04/25 04:45:37;;;;;;;3.57;1.97;;;;;;;;;;4998698;28;20262;-80
2023/04/25 04:48:05;;;;;;;2.17;1.90;;;;;;;;;;4998632;28;20234;-80
2023/04/25 04:50:32;;;;;;;3.87;2.17;;;;;;;;;;4997885;28;20210;-80
2023/04/25 04:52:58;;;;;;;2.43;1.90;;;;;;;;;;4997083;28;20211;-80
2023/04/25 04:55:24;;;;;;;2.70;2.00;;;;;;;;;;4996568;28;20714;-80
2023/04/25 04:57:51;;;;;;;2.97;2.10;;;;;;;;;;4997482;28;20207;-80
2023/04/25 05:00:17;;;;;;;2.60;2.07;;;;;;;;;;4997147;28;20233;-80
2023/04/25 05:02:44;;;;;;;3.80;2.10;;;;;;;;;;4997239;28;20213;-80
2023/04/25 05:05:10;;;;;;;3.10;2.20;;;;;;;;;;4997014;28;20241;-80
2023/04/25 05:07:36;;;;;;;3.83;2.10;;;;;;;;;;4997102;28;20736;-80
2023/04/25 05:10:03;;;;;;;3.90;2.43;;;;;;;;;;4997348;28;20211;-80
2023/04/25 05:12:30;;;;;;;2.23;2.00;;;;;;;;;;4997319;28;20689;-80
2023/04/25 05:14:56;;;;;;;3.03;2.20;;;;;;;;;;4996926;28;20270;-80
2023/04/25 05:17:22;;;;;;;2.93;2.20;;;;;;;;;;4997271;28;20207;-80
2023/04/25 05:19:49;;;;;;;5.23;2.47;;;;;;;;;;4997057;28;20227;-80
2023/04/25 05:22:15;;;;;;;2.97;2.43;;;;;;;;;;4997031;28;20211;-80
2023/04/25 05:24:41;;;;;;;3.77;2.30;;;;;;;;;;4996492;28;20207;-80
2023/04/25 05:27:07;;;;;;;3.07;2.53;;;;;;;;;;4996033;28;20234;-80
2023/04/25 05:29:33;;;;;;;6.00;2.70;;;;;;;;;;4997287;28;20207;-81
2023/04/25 05:32:00;;;;;;;3.20;2.67;;;;;;;;;;4996920;28;20207;-80
2023/04/25 05:34:26;;;;;;;5.53;2.47;;;;;;;;;;4996402;28;20302;-80
2023/04/25 05:36:52;;;;;;;4.70;2.80;;;;;;;;;;4996501;28;20231;-80
2023/04/25 05:39:18;;;;;;;4.90;3.30;;;;;;;;;;4996097;28;20231;-79
2023/04/25 05:41:45;;;;;;;4.17;3.00;;;;;;;;;;4995590;28;20211;-79
2023/04/25 05:44:11;;;;;;;3.20;2.90;;;;;;;;;;4996388;28;20666;-79
2023/04/25 05:46:37;;;;;;;3.90;2.93;;;;;;;;;;4996558;28;20610;-79
2023/04/25 05:49:03;;;;;;;3.10;2.80;;;;;;;;;;4996378;28;20204;-79
2023/04/25 05:51:31;;;;;;;3.00;2.70;;;;;;;;;;4996101;28;20295;-79
2023/04/25 05:53:57;;;;;;;3.03;2.50;;;;;;;;;;4995802;28;20238;-79
2023/04/25 05:56:23;;;;;;;4.07;2.80;;;;;;;;;;4995611;28;20227;-79
2023/04/25 05:58:49;;;;;;;3.80;2.90;;;;;;;;;;4996010;28;20211;-80
2023/04/25 06:01:15;;;;;;;4.50;3.13;;;;;;;;;;4996221;28;20207;-80
2023/04/25 06:03:43;;;;;;;4.77;2.40;;;;;;;;;;4995885;28;20211;-80
2023/04/25 06:06:09;;;;;;;2.97;2.37;;;;;;;;;;4995290;28;20565;-76
2023/04/25 06:08:36;;;;;;;2.77;2.40;;;;;;;;;;4993703;28;20683;-76
2023/04/25 06:11:02;;;;;;;4.77;2.80;;;;;;;;;;4994219;28;20214;-76
2023/04/25 06:13:28;;;;;;;4.63;3.17;;;;;;;;;;4994115;28;20207;-76
2023/04/25 06:15:54;;;;;;;3.10;2.80;;;;;;;;;;4994105;28;20238;-76
2023/04/25 06:18:21;;;;;;;3.00;2.70;;;;;;;;;;4993267;28;20211;-76
2023/04/25 06:20:47;;;;;;;4.77;3.00;;;;;;;;;;4993653;28;20223;-76
2023/04/25 06:23:13;;;;;;;3.17;2.50;;;;;;;;;;4993922;28;20205;-76
2023/04/25 06:25:39;;;;;;;3.57;2.47;;;;;;;;;;4994065;28;20234;-76
2023/04/25 06:28:06;;;;;;;3.83;2.50;;;;;;;;;;4993501;28;20688;-76
2023/04/25 06:30:32;;;;;;;3.17;2.30;;;;;;;;;;4993779;28;20203;-76
2023/04/25 06:32:58;;;;;;;2.57;2.27;;;;;;;;;;4993812;28;20207;-76
2023/04/25 06:35:24;;;;;;;3.20;2.50;;;;;;;;;;4993732;28;20227;-76
2023/04/25 06:37:50;;;;;;;2.73;2.53;;;;;;;;;;4994881;28;20214;-76
2023/04/25 06:40:17;;;;;;;2.73;2.53;;;;;;;;;;4997615;28;20254;-76
2023/04/25 06:42:43;;;;;;;3.03;2.60;;;;;;;;;;4997674;28;20218;-76
2023/04/25 06:45:10;;;;;;;3.47;2.83;;;;;;;;;;4997292;28;20657;-76
2023/04/25 06:47:36;;;;;;;6.03;2.77;;;;;;;;;;4997069;28;20207;-76
2023/04/25 06:50:02;;;;;;;3.93;2.50;;;;;;;;;;4997195;28;20214;-76
2023/04/25 06:52:28;;;;;;;3.67;2.63;;;;;;;;;;4996979;28;20204;-76
2023/04/25 06:54:55;;;;;;;4.60;2.80;;;;;;;;;;4997104;28;20223;-75
2023/04/25 06:57:21;;;;;;;3.53;3.13;;;;;;;;;;4997033;28;20211;-75
2023/04/25 06:59:47;;;;;;;5.03;3.00;;;;;;;;;;4996843;28;20230;-75
2023/04/25 07:02:13;;;;;;;3.10;2.60;;;;;;;;;;4997236;28;20206;-76
2023/04/25 07:04:40;;;;;;;2.80;2.50;;;;;;;;;;4997136;28;20218;-76
2023/04/25 07:07:06;;;;;;;2.93;2.73;;;;;;;;;;4997076;28;20227;-75
2023/04/25 07:09:33;;;;;;;3.17;2.97;;;;;;;;;;4996890;28;20212;-75
2023/04/25 07:12:01;;;;;;;3.23;2.83;;;;;;;;;;4997119;28;20211;-75
2023/04/25 07:14:27;;;;;;;4.13;3.30;;;;;;;;;;4996857;28;20204;-75
2023/04/25 07:16:55;;;;;;;3.63;3.33;;;;;;;;;;4996904;28;20234;-75
2023/04/25 07:19:21;;;;;;;3.47;3.17;;;;;;;;;;4996916;28;20259;-75
2023/04/25 07:21:48;;;;;;;3.60;3.30;;;;;;;;;;4997097;28;20214;-75
2023/04/25 07:24:14;;;;;;;4.70;3.33;;;;;;;;;;4997012;28;20203;-75
2023/04/25 07:26:40;;;;;;;5.67;3.63;;;;;;;;;;4996925;28;20235;-76
2023/04/25 07:29:06;;;;;;;3.20;2.93;;;;;;;;;;4996791;28;20210;-76
2023/04/25 07:31:33;;;;;;;3.40;3.10;;;;;;;;;;4996644;28;20214;-76
2023/04/25 07:33:59;;;;;;;3.50;3.27;;;;;;;;;;4996625;28;20204;-76
2023/04/25 07:36:26;;;;;;;3.47;3.17;;;;;;;;;;4996624;28;20596;-76
2023/04/25 07:38:52;;;;;;;3.63;3.33;;;;;;;;;;4996400;28;20211;-76
2023/04/25 07:41:18;;;;;;;3.50;3.20;;;;;;;;;;4996353;28;20720;-76
2023/04/25 07:43:45;;;;;;;4.27;3.00;;;;;;;;;;4996999;28;20566;-76
2023/04/25 07:46:11;;;;;;;4.70;3.50;;;;;;;;;;4996455;28;20227;-76
2023/04/25 07:48:37;;;;;;;6.23;3.83;;;;;;;;;;4996014;28;20207;-76
2023/04/25 07:51:05;;;;;;;4.03;3.63;;;;;;;;;;4996529;28;20206;-76
2023/04/25 07:53:31;;;;;;;4.80;3.73;;;;;;;;;;4996491;28;20306;-76
2023/04/25 07:55:58;;;;;;;6.73;3.90;;;;;;;;;;4996155;28;20318;-76
2023/04/25 07:58:24;;;;;;;4.27;3.87;;;;;;;;;;4996181;28;20210;-77
2023/04/25 08:00:50;;;;;;;4.80;4.10;;;;;;;;;;4996145;28;20267;-76
2023/04/25 08:03:16;;;;;;;5.67;3.77;;;;;;;;;;4996290;28;20203;-75
2023/04/25 08:05:43;;;;;;;3.87;3.50;;;;;;;;;;4996507;28;20227;-75
2023/04/25 08:08:09;;;;;;;4.97;4.13;;;;;;;;;;4996019;28;20222;-75
2023/04/25 08:10:35;;;;;;;6.07;4.10;;;;;;;;;;4996112;28;20208;-75
2023/04/25 08:13:02;;;;;;;4.10;3.80;;;;;;;;;;4995963;28;20229;-75
2023/04/25 08:15:28;;;;;;;4.20;3.70;;;;;;;;;;4996005;28;20230;-75
2023/04/25 08:17:54;;;;;;;3.70;3.40;;;;;;;;;;4996483;28;20203;-74
2023/04/25 08:20:21;;;;;;;3.20;3.00;;;;;;;;;;4995577;28;20708;-74
2023/04/25 08:22:48;;;;;;;3.60;3.30;;;;;;;;;;4996108;28;20218;-74
2023/04/25 08:25:14;;;;;;;4.00;3.17;;;;;;;;;;4995578;28;20231;-74
2023/04/25 08:27:41;;;;;;;3.87;3.23;;;;;;;;;;4995882;28;20207;-74
2023/04/25 08:30:08;;;;;;;3.73;3.43;;;;;;;;;;4996058;28;20202;-74
2023/04/25 08:32:37;;;;;;;3.83;3.37;;;;;;;;;;4995702;28;20214;-74
2023/04/25 08:35:04;;;;;;;3.50;3.20;;;;;;;;;;4995586;28;20207;-74
2023/04/25 08:37:30;;;;;;;4.00;3.67;;;;;;;;;;4995655;28;20211;-74
2023/04/25 08:39:56;;;;;;;4.53;3.17;;;;;;;;;;4995398;28;20238;-74
2023/04/25 08:42:24;;;;;;;4.00;3.50;;;;;;;;;;4995171;28;20207;-74
2023/04/25 08:44:50;;;;;;;3.87;3.47;;;;;;;;;;4995236;28;20265;-74
2023/04/25 08:47:18;;;;;;;3.70;3.40;;;;;;;;;;4995232;28;20211;-74
2023/04/25 08:49:46;;;;;;;5.30;3.93;;;;;;;;;;4994950;28;20207;-74
2023/04/25 08:52:13;;;;;;;4.00;3.60;;;;;;;;;;4994869;28;20265;-74
2023/04/25 08:54:43;;;;;;;4.00;3.60;;;;;;;;;;4994989;28;20230;-74
2023/04/25 08:57:09;;;;;;;5.07;3.50;;;;;;;;;;4994600;28;20298;-73
2023/04/25 08:59:37;;;;;;;8.20;3.90;;;;;;;;;;4994547;28;20238;-73
2023/04/25 09:02:03;;;;;;;5.20;3.73;;;;;;;;;;4994664;28;20213;-73
2023/04/25 09:04:33;;;;;;;8.17;4.27;;;;;;;;;;4994680;28;20203;-73
2023/04/25 09:06:59;;;;;;;4.47;3.83;;;;;;;;;;4994573;28;20745;-73
2023/04/25 09:09:25;;;;;;;5.87;3.80;;;;;;;;;;4994764;28;20215;-73
2023/04/25 09:11:54;;;;;;;3.00;2.70;;;;;;;;;;4994872;28;20230;-73
2023/04/25 09:14:22;;;;;;;5.20;3.67;;;;;;;;;;4994739;28;20214;-73
2023/04/25 09:16:57;;;;;;;4.00;3.40;;;;;;;;;;4994513;28;20224;-73
2023/04/25 09:19:24;;;;;;;4.10;3.43;;;;;;;;;;4994733;28;20213;-73
2023/04/25 09:21:51;;;;;;;3.87;3.50;;;;;;;;;;4994723;28;20265;-73
2023/04/25 09:24:20;;;;;;;5.33;4.07;;;;;;;;;;4994360;28;20203;-73
2023/04/25 09:26:47;;;;;;;4.40;3.60;;;;;;;;;;4994307;28;20764;-74
2023/04/25 09:29:13;;;;;;;3.60;3.30;;;;;;;;;;4994498;28;20261;-74
2023/04/25 09:31:40;;;;;;;3.30;3.10;;;;;;;;;;4994453;28;20222;-74
2023/04/25 09:34:06;;;;;;;4.80;3.77;;;;;;;;;;4994123;28;20203;-74
2023/04/25 09:36:32;;;;;;;3.80;3.37;;;;;;;;;;4994637;28;20227;-74
2023/04/25 09:39:00;;;;;;;4.90;3.57;;;;;;;;;;4994924;28;20203;-75
2023/04/25 09:41:26;;;;;;;4.10;3.70;;;;;;;;;;4994485;28;20236;-75
2023/04/25 09:43:52;;;;;;;3.50;3.20;;;;;;;;;;4994361;28;20205;-75
2023/04/25 09:46:21;;;;;;;4.23;3.50;;;;;;;;;;4993983;28;20227;-75
2023/04/25 09:48:51;;;;;;;4.47;4.07;;;;;;;;;;4994284;28;20270;-76
2023/04/25 09:51:17;;;;;;;4.90;4.50;;;;;;;;;;4994371;28;20211;-75
2023/04/25 09:53:46;;;;;;;3.63;3.30;;;;;;;;;;4994058;28;20214;-75
2023/04/25 09:56:13;;;;;;;4.00;3.70;;;;;;;;;;4993905;28;20230;-75
2023/04/25 09:58:40;;;;;;;3.40;3.20;;;;;;;;;;4993884;28;20211;-76
2023/04/25 10:01:07;;;;;;;4.27;3.00;;;;;;;;;;4994197;28;20226;-74
2023/04/25 10:03:35;;;;;;;4.00;3.50;;;;;;;;;;4993908;28;20207;-75
2023/04/25 10:06:02;;;;;;;6.00;4.77;;;;;;;;;;4994285;28;20231;-75
2023/04/25 10:08:32;;;;;;;5.03;4.53;;;;;;;;;;4994019;28;20214;-76
2023/04/25 10:11:03;;;;;;;4.87;4.23;;;;;;;;;;4994146;28;20207;-76
2023/04/25 10:13:30;;;;;;;6.13;4.97;;;;;;;;;;4994058;28;20199;-76
2023/04/25 10:15:58;;;;;;;5.70;4.90;;;;;;;;;;4993752;28;20282;-77
2023/04/25 10:18:25;;;;;;;6.50;5.00;;;;;;;;;;4994084;28;20207;-76
2023/04/25 10:20:51;;;;;;;6.53;3.90;;;;;;;;;;4993939;28;20235;-76
2023/04/25 10:23:17;;;;;;;2.90;2.53;;;;;;;;;;4994012;28;20218;-75
2023/04/25 10:25:44;;;;;;;3.30;2.13;;;;;;;;;;4993908;28;20228;-76
2023/04/25 10:28:10;;;;;;;4.83;2.40;;;;;;;;;;4993681;28;20204;-76
2023/04/25 10:30:37;;;;;;;3.40;3.10;;;;;;;;;;4993570;28;20203;-75
2023/04/25 10:33:16;;;;;;;3.27;3.00;;;;;;;;;;4994155;28;20239;-75
2023/04/25 10:35:43;;;;;;;3.43;3.13;;;;;;;;;;4993603;28;20234;-75
2023/04/25 10:38:14;;;;;;;4.40;2.97;;;;;;;;;;4993637;28;20211;-75
2023/04/25 10:40:41;;;;;;;3.17;2.60;;;;;;;;;;4993736;28;20231;-75
2023/04/25 10:43:25;;;;;;;3.10;2.80;;;;;;;;;;4993380;28;20651;-75
2023/04/25 10:45:52;;;;;;;7.43;4.30;;;;;;;;;;4993143;28;20713;-75
2023/04/25 10:48:28;;;;;;;5.03;4.20;;;;;;;;;;4993597;28;20203;-75
2023/04/25 10:51:11;;;;;;;6.27;5.00;;;;;;;;;;4993728;28;20234;-75
2023/04/25 10:53:37;;;;;;;5.37;4.87;;;;;;;;;;4993757;28;20214;-76
2023/04/25 10:56:10;;;;;;;4.47;4.07;;;;;;;;;;4993524;28;20231;-75
2023/04/25 10:58:37;;;;;;;3.60;3.13;;;;;;;;;;4993509;28;20291;-75
2023/04/25 11:01:03;;;;;;;3.30;3.00;;;;;;;;;;4993577;28;20239;-74
2023/04/25 11:03:30;;;;;;;3.57;3.07;;;;;;;;;;4993549;28;20573;-74
2023/04/25 11:05:56;;;;;;;3.90;3.20;;;;;;;;;;4993606;28;20274;-75
2023/04/25 11:08:30;;;;;;;3.37;3.07;;;;;;;;;;4993309;28;20683;-75
2023/04/25 11:10:56;;;;;;;3.10;2.80;;;;;;;;;;4993651;28;20184;-75
2023/04/25 11:13:23;;;;;;;3.33;3.03;;;;;;;;;;4993876;28;20211;-75
2023/04/25 11:15:52;;;;;;;5.03;3.10;;;;;;;;;;4993387;28;20266;-75
2023/04/25 11:18:18;;;;;;;3.67;3.33;;;;;;;;;;4993137;28;20611;-75
2023/04/25 11:20:45;;;;;;;4.10;3.80;;;;;;;;;;4993416;28;20227;-75
2023/04/25 11:23:11;;;;;;;6.03;4.27;;;;;;;;;;4993682;28;20207;-75
2023/04/25 11:25:37;;;;;;;5.70;4.13;;;;;;;;;;4996880;28;20223;-75
2023/04/25 11:28:04;;;;;;;4.67;4.27;;;;;;;;;;4997234;28;20203;-75
2023/04/25 11:30:31;;;;;;;3.43;2.93;;;;;;;;;;4997181;28;20211;-75
2023/04/25 11:32:57;;;;;;;3.03;2.37;;;;;;;;;;4996487;28;20613;-75
2023/04/25 11:35:25;;;;;;;5.50;3.20;;;;;;;;;;4996832;28;20223;-75
2023/04/25 11:37:51;;;;;;;2.83;2.60;;;;;;;;;;4996767;28;20230;-75
2023/04/25 11:40:18;;;;;;;2.70;2.50;;;;;;;;;;4996427;28;20207;-75
2023/04/25 11:42:45;;;;;;;1.83;1.73;;;;;;;;;;4996856;28;20215;-75
2023/04/25 11:45:11;;;;;;;1.70;1.60;;;;;;;;;;4996276;28;20231;-75
2023/04/25 11:47:38;;;;;;;3.17;2.50;;;;;;;;;;4996439;28;20298;-75
2023/04/25 11:50:05;;;;;;;3.00;2.57;;;;;;;;;;4996491;28;20261;-75
2023/04/25 11:52:38;;;;;;;3.17;2.87;;;;;;;;;;4996555;28;20277;-75
2023/04/25 11:55:08;;;;;;;3.10;2.63;;;;;;;;;;4996209;28;20234;-75
2023/04/25 11:57:35;;;;;;;5.50;3.23;;;;;;;;;;4996278;28;20254;-75
2023/04/25 12:00:12;;;;;;;3.83;3.20;;;;;;;;;;4996262;28;20204;-75
2023/04/25 12:02:42;;;;;;;4.57;3.80;;;;;;;;;;4996188;28;20206;-75
2023/04/25 12:05:10;;;;;;;4.17;3.30;;;;;;;;;;4996248;28;20317;-75
2023/04/25 12:07:37;;;;;;;4.03;3.70;;;;;;;;;;4996215;28;20214;-75
2023/04/25 12:10:11;;;;;;;3.50;3.17;;;;;;;;;;4996205;28;20195;-75
2023/04/25 12:12:38;;;;;;;4.70;4.30;;;;;;;;;;4995065;28;20441;-75
2023/04/25 12:15:10;;;;;;;3.87;3.57;;;;;;;;;;4995838;28;20243;-75
2023/04/25 12:17:37;;;;;;;4.10;3.70;;;;;;;;;;4995642;28;20242;-75
2023/04/25 12:20:08;;;;;;;6.03;4.23;;;;;;;;;;4995684;28;20211;-76
2023/04/25 12:22:36;;;;;;;3.80;3.50;;;;;;;;;;4995595;28;20227;-76
2023/04/25 12:25:03;;;;;;;3.67;3.37;;;;;;;;;;4995423;28;20234;-76
2023/04/25 12:27:31;;;;;;;4.83;4.23;;;;;;;;;;4995564;28;20207;-76
2023/04/25 12:29:58;;;;;;;4.93;4.30;;;;;;;;;;4995269;28;20215;-76
2023/04/25 12:32:25;;;;;;;4.83;4.30;;;;;;;;;;4995605;28;20203;-76
2023/04/25 12:34:51;;;;;;;5.33;4.37;;;;;;;;;;4994735;28;20210;-76
2023/04/25 12:37:18;;;;;;;4.50;4.10;;;;;;;;;;4994955;28;20208;-76
2023/04/25 12:39:44;;;;;;;4.50;4.10;;;;;;;;;;4995386;28;20798;-75
2023/04/25 12:42:11;;;;;;;6.20;4.73;;;;;;;;;;4994963;28;20695;-76
2023/04/25 12:44:38;;;;;;;5.57;5.07;;;;;;;;;;4995009;28;20545;-76
2023/04/25 12:47:05;;;;;;;6.63;4.40;;;;;;;;;;4995119;28;20234;-76
2023/04/25 12:49:31;;;;;;;5.27;4.60;;;;;;;;;;4995426;28;20203;-76
2023/04/25 12:51:57;;;;;;;6.13;4.43;;;;;;;;;;4995499;28;20207;-75
2023/04/25 12:54:24;;;;;;;5.40;4.90;;;;;;;;;;4994885;28;20222;-75
2023/04/25 12:56:51;;;;;;;6.77;6.17;;;;;;;;;;4994943;28;20231;-75
2023/04/25 12:59:17;;;;;;;5.73;5.13;;;;;;;;;;4995326;28;20242;-75
2023/04/25 13:01:45;;;;;;;5.07;4.63;;;;;;;;;;4994996;28;20235;-75
2023/04/25 13:04:11;;;;;;;5.97;5.07;;;;;;;;;;4995055;28;20207;-74
2023/04/25 13:06:37;;;;;;;6.27;5.13;;;;;;;;;;4994760;28;20232;-74
2023/04/25 13:09:04;;;;;;;6.40;5.53;;;;;;;;;;4994530;28;20215;-74
2023/04/25 13:11:31;;;;;;;6.70;6.10;;;;;;;;;;4994041;28;20736;-74
2023/04/25 13:13:57;;;;;;;6.47;4.80;;;;;;;;;;4994357;28;20627;-75
2023/04/25 13:16:23;;;;;;;9.47;5.80;;;;;;;;;;4994113;28;20575;-74
2023/04/25 13:18:49;;;;;;;6.57;5.83;;;;;;;;;;4994197;28;20572;-74
2023/04/25 13:21:19;;;;;;;5.97;5.37;;;;;;;;;;4994453;28;20263;-74
2023/04/25 13:23:46;;;;;;;6.07;5.57;;;;;;;;;;4994471;28;20203;-74
2023/04/25 13:26:12;;;;;;;6.83;5.63;;;;;;;;;;4994575;28;20223;-74
2023/04/25 13:28:40;;;;;;;6.03;5.53;;;;;;;;;;4994171;28;20568;-74
2023/04/25 13:31:06;;;;;;;6.67;5.13;;;;;;;;;;4994373;28;20207;-74
2023/04/25 13:33:32;;;;;;;6.43;5.73;;;;;;;;;;4995103;28;20218;-74
2023/04/25 13:35:59;;;;;;;6.33;5.70;;;;;;;;;;4994676;28;20234;-74
2023/04/25 13:38:26;;;;;;;7.80;6.73;;;;;;;;;;4994180;28;20246;-74
2023/04/25 13:40:52;;;;;;;6.90;6.07;;;;;;;;;;4994071;28;20335;-74
2023/04/25 13:43:22;;;;;;;9.33;6.87;;;;;;;;;;4994225;28;20281;-74
2023/04/25 13:45:52;;;;;;;9.30;7.43;;;;;;;;;;4993737;28;20223;-73
2023/04/25 13:48:19;;;;;;;8.77;7.93;;;;;;;;;;4994418;28;20233;-74
2023/04/25 13:50:46;;;;;;;10.37;7.70;;;;;;;;;;4993984;28;20203;-73
2023/04/25 13:53:12;;;;;;;12.27;8.30;;;;;;;;;;4994480;28;20208;-74
2023/04/25 13:55:38;;;;;;;9.23;8.27;;;;;;;;;;4993958;28;20231;-73
2023/04/25 13:58:07;;;;;;;7.43;6.73;;;;;;;;;;4994243;28;20211;-74
2023/04/25 14:00:34;;;;;;;9.10;8.23;;;;;;;;;;4993679;28;20277;-74
2023/04/25 14:03:00;;;;;;;10.83;9.03;;;;;;;;;;4993673;28;20613;-74
2023/04/25 14:05:26;;;;;;;8.43;7.63;;;;;;;;;;4993565;28;20231;-74
2023/04/25 14:07:53;;;;;;;8.70;6.90;;;;;;;;;;4994214;28;20222;-74
2023/04/25 14:10:19;;;;;;;7.80;6.97;;;;;;;;;;4994806;28;20191;-74
2023/04/25 14:12:45;;;;;;;8.90;7.17;;;;;;;;;;4995327;28;20203;-74
2023/04/25 14:15:11;;;;;;;8.50;6.80;;;;;;;;;;4995150;28;20238;-75
2023/04/25 14:17:37;;;;;;;8.80;8.00;;;;;;;;;;4993582;28;20207;-75
2023/04/25 14:20:05;;;;;;;7.47;6.27;;;;;;;;;;4993693;28;20212;-75
2023/04/25 14:22:31;;;;;;;7.77;5.67;;;;;;;;;;4993616;28;20241;-75
2023/04/25 14:24:58;;;;;;;7.30;6.33;;;;;;;;;;4993642;28;20204;-76
2023/04/25 14:27:24;;;;;;;6.63;6.03;;;;;;;;;;4993379;28;20235;-76
2023/04/25 14:29:51;;;;;;;7.47;5.50;;;;;;;;;;4993547;28;20306;-75
2023/04/25 14:32:17;;;;;;;5.77;5.27;;;;;;;;;;4993625;28;20204;-76
2023/04/25 14:34:43;;;;;;;5.53;4.80;;;;;;;;;;4993406;28;20210;-76
2023/04/25 14:37:09;;;;;;;5.07;4.30;;;;;;;;;;4993516;28;20214;-76
2023/04/25 14:39:36;;;;;;;6.10;5.50;;;;;;;;;;4993493;28;20590;-76
2023/04/25 14:42:02;;;;;;;5.37;4.87;;;;;;;;;;4993135;28;20223;-76